< < Back
Terminal Aerodrome Forecast


Current Version              Previous Versions:   1  2  3  4  5  6  7  8  9  

Terminal Aerodrome Forecast

295
FTUS44 KMOB 041758
TAFMOB
TAF
KMOB 041758Z 0418/0518 33013G23KT P6SM FEW030 SCT120 BKN250
     FM050100 33005KT P6SM SKC
     FM051300 35012KT P6SM SKC=

Latest METAR

182
SAUS80 KWBC 041900 CCA
MTRMOB
METAR KMOB 041856Z 32008G16KT 10SM FEW050 SCT140 BKN250 23/10 A2988 RMK
AO2 SLP114 T02280100


USA.gov is the U.S. government's official web portal to all federal, state and local government web resources and services.